sensor_id;sensor_type;location;lat;lon;timestamp;pressure;altitude;pressure_sealevel;temperature
11321;BMP180;5715;48.234;14.320;2022-11-15T00:00:30;98604.00;;;12.60
11321;BMP180;5715;48.234;14.320;2022-11-15T00:03:23;98600.00;;;12.60
11321;BMP180;5715;48.234;14.320;2022-11-15T00:06:11;98603.00;;;12.60
11321;BMP180;5715;48.234;14.320;2022-11-15T00:09:00;98595.00;;;12.50
11321;BMP180;5715;48.234;14.320;2022-11-15T00:11:48;98602.00;;;12.50
11321;BMP180;5715;48.234;14.320;2022-11-15T00:14:35;98600.00;;;12.60
11321;BMP180;5715;48.234;14.320;2022-11-15T00:17:23;98593.00;;;12.50
11321;BMP180;5715;48.234;14.320;2022-11-15T00:20:10;98585.00;;;12.50
11321;BMP180;5715;48.234;14.320;2022-11-15T00:22:58;98588.00;;;12.60
11321;BMP180;5715;48.234;14.320;2022-11-15T00:25:46;98598.00;;;12.30
11321;BMP180;5715;48.234;14.320;2022-11-15T00:28:33;98596.00;;;12.40
11321;BMP180;5715;48.234;14.320;2022-11-15T00:31:21;98594.00;;;12.20
11321;BMP180;5715;48.234;14.320;2022-11-15T00:34:10;98599.00;;;12.10
11321;BMP180;5715;48.234;14.320;2022-11-15T00:36:57;98602.00;;;12.20
11321;BMP180;5715;48.234;14.320;2022-11-15T00:39:45;98601.00;;;12.20
11321;BMP180;5715;48.234;14.320;2022-11-15T00:42:32;98598.00;;;12.10
11321;BMP180;5715;48.234;14.320;2022-11-15T00:45:20;98585.00;;;12.10
11321;BMP180;5715;48.234;14.320;2022-11-15T00:48:09;98585.00;;;12.10
11321;BMP180;5715;48.234;14.320;2022-11-15T00:50:57;98577.00;;;12.00
11321;BMP180;5715;48.234;14.320;2022-11-15T00:53:45;98591.00;;;12.10
11321;BMP180;5715;48.234;14.320;2022-11-15T00:56:32;98582.00;;;12.20
11321;BMP180;5715;48.234;14.320;2022-11-15T00:59:19;98588.00;;;12.20
11321;BMP180;5715;48.234;14.320;2022-11-15T01:02:07;98589.00;;;12.10
11321;BMP180;5715;48.234;14.320;2022-11-15T01:04:54;98589.00;;;12.00
11321;BMP180;5715;48.234;14.320;2022-11-15T01:07:42;98592.00;;;12.00
11321;BMP180;5715;48.234;14.320;2022-11-15T01:10:30;98600.00;;;11.90
11321;BMP180;5715;48.234;14.320;2022-11-15T01:13:17;98594.00;;;12.00
11321;BMP180;5715;48.234;14.320;2022-11-15T01:16:16;98590.00;;;12.10
11321;BMP180;5715;48.234;14.320;2022-11-15T01:19:04;98584.00;;;12.00
11321;BMP180;5715;48.234;14.320;2022-11-15T01:21:52;98581.00;;;12.00
11321;BMP180;5715;48.234;14.320;2022-11-15T01:24:39;98583.00;;;12.00
11321;BMP180;5715;48.234;14.320;2022-11-15T01:27:27;98574.00;;;12.00
11321;BMP180;5715;48.234;14.320;2022-11-15T01:30:15;98576.00;;;12.00
11321;BMP180;5715;48.234;14.320;2022-11-15T01:33:02;98580.00;;;11.90
11321;BMP180;5715;48.234;14.320;2022-11-15T01:35:49;98578.00;;;11.80
11321;BMP180;5715;48.234;14.320;2022-11-15T01:38:37;98567.00;;;11.70
11321;BMP180;5715;48.234;14.320;2022-11-15T01:41:31;98566.00;;;11.80
11321;BMP180;5715;48.234;14.320;2022-11-15T01:44:50;98569.00;;;11.70
11321;BMP180;5715;48.234;14.320;2022-11-15T01:47:43;98553.00;;;11.70
11321;BMP180;5715;48.234;14.320;2022-11-15T01:50:33;98547.00;;;11.70
11321;BMP180;5715;48.234;14.320;2022-11-15T01:53:23;98542.00;;;11.70
11321;BMP180;5715;48.234;14.320;2022-11-15T01:56:18;98541.00;;;11.70
11321;BMP180;5715;48.234;14.320;2022-11-15T01:59:08;98537.00;;;11.70
11321;BMP180;5715;48.234;14.320;2022-11-15T02:01:57;98546.00;;;11.70
11321;BMP180;5715;48.234;14.320;2022-11-15T02:04:47;98547.00;;;11.50
11321;BMP180;5715;48.234;14.320;2022-11-15T02:07:37;98543.00;;;11.40
11321;BMP180;5715;48.234;14.320;2022-11-15T02:10:25;98539.00;;;11.40
11321;BMP180;5715;48.234;14.320;2022-11-15T02:13:15;98537.00;;;11.50
11321;BMP180;5715;48.234;14.320;2022-11-15T02:16:21;98535.00;;;11.60
11321;BMP180;5715;48.234;14.320;2022-11-15T02:29:51;98521.00;;;11.70
11321;BMP180;5715;48.234;14.320;2022-11-15T02:33:26;98514.00;;;11.60
11321;BMP180;5715;48.234;14.320;2022-11-15T02:37:05;98526.00;;;11.60
11321;BMP180;5715;48.234;14.320;2022-11-15T02:40:23;98538.00;;;11.70
11321;BMP180;5715;48.234;14.320;2022-11-15T02:43:25;98536.00;;;11.50
11321;BMP180;5715;48.234;14.320;2022-11-15T02:46:50;98537.00;;;11.50
11321;BMP180;5715;48.234;14.320;2022-11-15T02:50:03;98529.00;;;11.50
11321;BMP180;5715;48.234;14.320;2022-11-15T02:52:53;98523.00;;;11.40
11321;BMP180;5715;48.234;14.320;2022-11-15T02:55:49;98525.00;;;11.40
11321;BMP180;5715;48.234;14.320;2022-11-15T02:59:13;98518.00;;;11.40
11321;BMP180;5715;48.234;14.320;2022-11-15T03:08:46;98507.00;;;11.40
11321;BMP180;5715;48.234;14.320;2022-11-15T03:11:46;98502.00;;;11.40
11321;BMP180;5715;48.234;14.320;2022-11-15T03:14:54;98493.00;;;11.60
11321;BMP180;5715;48.234;14.320;2022-11-15T03:17:56;98490.00;;;11.40
11321;BMP180;5715;48.234;14.320;2022-11-15T03:20:48;98493.00;;;11.20
11321;BMP180;5715;48.234;14.320;2022-11-15T03:23:39;98487.00;;;10.90
11321;BMP180;5715;48.234;14.320;2022-11-15T03:26:29;98481.00;;;11.10
11321;BMP180;5715;48.234;14.320;2022-11-15T03:29:24;98483.00;;;11.10
11321;BMP180;5715;48.234;14.320;2022-11-15T03:32:19;98484.00;;;11.20
11321;BMP180;5715;48.234;14.320;2022-11-15T03:35:27;98476.00;;;11.30
11321;BMP180;5715;48.234;14.320;2022-11-15T03:38:25;98486.00;;;11.30
11321;BMP180;5715;48.234;14.320;2022-11-15T03:41:29;98493.00;;;11.40
11321;BMP180;5715;48.234;14.320;2022-11-15T03:48:14;98472.00;;;11.60
11321;BMP180;5715;48.234;14.320;2022-11-15T03:51:04;98475.00;;;11.60
11321;BMP180;5715;48.234;14.320;2022-11-15T03:53:52;98475.00;;;11.90
11321;BMP180;5715;48.234;14.320;2022-11-15T03:56:40;98474.00;;;11.70
11321;BMP180;5715;48.234;14.320;2022-11-15T03:59:27;98470.00;;;11.60
11321;BMP180;5715;48.234;14.320;2022-11-15T04:02:15;98467.00;;;11.70
11321;BMP180;5715;48.234;14.320;2022-11-15T04:05:04;98459.00;;;11.60
11321;BMP180;5715;48.234;14.320;2022-11-15T04:07:52;98459.00;;;11.70
11321;BMP180;5715;48.234;14.320;2022-11-15T04:10:39;98465.00;;;11.60
11321;BMP180;5715;48.234;14.320;2022-11-15T04:13:27;98471.00;;;11.80
11321;BMP180;5715;48.234;14.320;2022-11-15T04:16:15;98461.00;;;11.90
11321;BMP180;5715;48.234;14.320;2022-11-15T04:19:03;98459.00;;;11.70
11321;BMP180;5715;48.234;14.320;2022-11-15T04:22:09;98459.00;;;11.70
11321;BMP180;5715;48.234;14.320;2022-11-15T04:25:15;98456.00;;;11.50
11321;BMP180;5715;48.234;14.320;2022-11-15T04:28:10;98454.00;;;11.50
11321;BMP180;5715;48.234;14.320;2022-11-15T04:30:58;98451.00;;;11.50
11321;BMP180;5715;48.234;14.320;2022-11-15T04:33:46;98442.00;;;11.70
11321;BMP180;5715;48.234;14.320;2022-11-15T04:36:34;98435.00;;;11.60
11321;BMP180;5715;48.234;14.320;2022-11-15T04:39:41;98437.00;;;11.50
11321;BMP180;5715;48.234;14.320;2022-11-15T04:42:29;98438.00;;;11.50
11321;BMP180;5715;48.234;14.320;2022-11-15T04:45:17;98436.00;;;11.50
11321;BMP180;5715;48.234;14.320;2022-11-15T04:48:05;98440.00;;;11.60
11321;BMP180;5715;48.234;14.320;2022-11-15T04:50:52;98440.00;;;11.60
11321;BMP180;5715;48.234;14.320;2022-11-15T04:53:40;98437.00;;;11.70
11321;BMP180;5715;48.234;14.320;2022-11-15T04:56:27;98433.00;;;11.60
11321;BMP180;5715;48.234;14.320;2022-11-15T04:59:15;98428.00;;;11.70
11321;BMP180;5715;48.234;14.320;2022-11-15T05:02:02;98431.00;;;11.70
11321;BMP180;5715;48.234;14.320;2022-11-15T05:04:50;98432.00;;;11.70
11321;BMP180;5715;48.234;14.320;2022-11-15T05:07:37;98432.00;;;11.70
11321;BMP180;5715;48.234;14.320;2022-11-15T05:10:25;98422.00;;;11.60
11321;BMP180;5715;48.234;14.320;2022-11-15T05:13:12;98419.00;;;11.50
11321;BMP180;5715;48.234;14.320;2022-11-15T05:16:00;98426.00;;;11.50
11321;BMP180;5715;48.234;14.320;2022-11-15T05:18:52;98414.00;;;11.60
11321;BMP180;5715;48.234;14.320;2022-11-15T05:21:40;98412.00;;;11.60
11321;BMP180;5715;48.234;14.320;2022-11-15T05:24:28;98412.00;;;11.50
11321;BMP180;5715;48.234;14.320;2022-11-15T05:27:15;98410.00;;;11.90
11321;BMP180;5715;48.234;14.320;2022-11-15T05:30:03;98406.00;;;12.10
11321;BMP180;5715;48.234;14.320;2022-11-15T05:32:50;98405.00;;;12.30
11321;BMP180;5715;48.234;14.320;2022-11-15T05:35:46;98404.00;;;12.40
11321;BMP180;5715;48.234;14.320;2022-11-15T05:38:36;98393.00;;;12.40
11321;BMP180;5715;48.234;14.320;2022-11-15T05:41:34;98390.00;;;12.60
11321;BMP180;5715;48.234;14.320;2022-11-15T05:44:25;98392.00;;;12.50
11321;BMP180;5715;48.234;14.320;2022-11-15T05:47:24;98390.00;;;12.10
11321;BMP180;5715;48.234;14.320;2022-11-15T05:50:16;98397.00;;;12.10
11321;BMP180;5715;48.234;14.320;2022-11-15T05:53:06;98396.00;;;12.10
11321;BMP180;5715;48.234;14.320;2022-11-15T05:55:53;98391.00;;;12.10
11321;BMP180;5715;48.234;14.320;2022-11-15T05:58:42;98403.00;;;11.80
11321;BMP180;5715;48.234;14.320;2022-11-15T06:01:30;98398.00;;;11.70
11321;BMP180;5715;48.234;14.320;2022-11-15T06:04:18;98401.00;;;11.50
11321;BMP180;5715;48.234;14.320;2022-11-15T06:07:05;98406.00;;;11.50
11321;BMP180;5715;48.234;14.320;2022-11-15T06:09:53;98396.00;;;11.40
11321;BMP180;5715;48.234;14.320;2022-11-15T06:12:40;98400.00;;;11.40
11321;BMP180;5715;48.234;14.320;2022-11-15T06:15:28;98398.00;;;11.50
11321;BMP180;5715;48.234;14.320;2022-11-15T06:18:16;98402.00;;;11.50
11321;BMP180;5715;48.234;14.320;2022-11-15T06:21:04;98396.00;;;11.40
11321;BMP180;5715;48.234;14.320;2022-11-15T06:23:51;98387.00;;;11.60
11321;BMP180;5715;48.234;14.320;2022-11-15T06:26:39;98392.00;;;11.60
11321;BMP180;5715;48.234;14.320;2022-11-15T06:29:26;98389.00;;;11.80
11321;BMP180;5715;48.234;14.320;2022-11-15T06:32:14;98396.00;;;12.00
11321;BMP180;5715;48.234;14.320;2022-11-15T06:35:01;98396.00;;;12.10
11321;BMP180;5715;48.234;14.320;2022-11-15T06:37:49;98391.00;;;12.50
11321;BMP180;5715;48.234;14.320;2022-11-15T06:40:38;98391.00;;;12.80
11321;BMP180;5715;48.234;14.320;2022-11-15T06:43:26;98399.00;;;13.00
11321;BMP180;5715;48.234;14.320;2022-11-15T06:46:14;98401.00;;;13.20
11321;BMP180;5715;48.234;14.320;2022-11-15T06:49:02;98396.00;;;13.10
11321;BMP180;5715;48.234;14.320;2022-11-15T06:51:56;98394.00;;;13.30
11321;BMP180;5715;48.234;14.320;2022-11-15T06:54:43;98395.00;;;13.40
11321;BMP180;5715;48.234;14.320;2022-11-15T06:57:31;98410.00;;;13.60
11321;BMP180;5715;48.234;14.320;2022-11-15T07:00:22;98411.00;;;13.70
11321;BMP180;5715;48.234;14.320;2022-11-15T07:03:10;98411.00;;;13.70
11321;BMP180;5715;48.234;14.320;2022-11-15T07:05:58;98413.00;;;13.80
11321;BMP180;5715;48.234;14.320;2022-11-15T07:08:53;98409.00;;;13.90
11321;BMP180;5715;48.234;14.320;2022-11-15T07:11:41;98410.00;;;13.80
11321;BMP180;5715;48.234;14.320;2022-11-15T07:14:29;98413.00;;;13.80
11321;BMP180;5715;48.234;14.320;2022-11-15T07:17:16;98418.00;;;13.80
11321;BMP180;5715;48.234;14.320;2022-11-15T07:20:05;98400.00;;;14.00
11321;BMP180;5715;48.234;14.320;2022-11-15T07:23:03;98402.00;;;14.00
11321;BMP180;5715;48.234;14.320;2022-11-15T07:25:51;98408.00;;;13.90
11321;BMP180;5715;48.234;14.320;2022-11-15T07:28:39;98407.00;;;14.10
11321;BMP180;5715;48.234;14.320;2022-11-15T07:31:26;98406.00;;;13.90
11321;BMP180;5715;48.234;14.320;2022-11-15T07:34:14;98414.00;;;13.90
11321;BMP180;5715;48.234;14.320;2022-11-15T07:37:02;98396.00;;;14.30
11321;BMP180;5715;48.234;14.320;2022-11-15T07:39:49;98402.00;;;14.20
11321;BMP180;5715;48.234;14.320;2022-11-15T07:42:37;98396.00;;;14.20
11321;BMP180;5715;48.234;14.320;2022-11-15T07:45:45;98399.00;;;14.30
11321;BMP180;5715;48.234;14.320;2022-11-15T07:48:32;98404.00;;;14.20
11321;BMP180;5715;48.234;14.320;2022-11-15T07:51:30;98398.00;;;14.30
11321;BMP180;5715;48.234;14.320;2022-11-15T07:54:18;98392.00;;;14.10
11321;BMP180;5715;48.234;14.320;2022-11-15T07:57:06;98390.00;;;14.20
11321;BMP180;5715;48.234;14.320;2022-11-15T07:59:54;98385.00;;;14.40
11321;BMP180;5715;48.234;14.320;2022-11-15T08:02:42;98384.00;;;14.40
11321;BMP180;5715;48.234;14.320;2022-11-15T08:05:31;98380.00;;;14.40
11321;BMP180;5715;48.234;14.320;2022-11-15T08:08:19;98383.00;;;14.00
11321;BMP180;5715;48.234;14.320;2022-11-15T08:11:06;98392.00;;;14.10
11321;BMP180;5715;48.234;14.320;2022-11-15T08:13:54;98385.00;;;14.50
11321;BMP180;5715;48.234;14.320;2022-11-15T08:16:41;98387.00;;;14.30
11321;BMP180;5715;48.234;14.320;2022-11-15T08:19:29;98373.00;;;14.30
11321;BMP180;5715;48.234;14.320;2022-11-15T08:22:17;98372.00;;;14.40
11321;BMP180;5715;48.234;14.320;2022-11-15T08:25:05;98367.00;;;14.40
11321;BMP180;5715;48.234;14.320;2022-11-15T08:27:55;98378.00;;;14.60
11321;BMP180;5715;48.234;14.320;2022-11-15T08:30:43;98375.00;;;14.50
11321;BMP180;5715;48.234;14.320;2022-11-15T08:33:35;98378.00;;;14.40
11321;BMP180;5715;48.234;14.320;2022-11-15T08:36:23;98374.00;;;14.30
11321;BMP180;5715;48.234;14.320;2022-11-15T08:39:11;98372.00;;;14.10
11321;BMP180;5715;48.234;14.320;2022-11-15T08:41:59;98374.00;;;14.50
11321;BMP180;5715;48.234;14.320;2022-11-15T08:44:47;98363.00;;;14.60
11321;BMP180;5715;48.234;14.320;2022-11-15T08:47:34;98362.00;;;14.20
11321;BMP180;5715;48.234;14.320;2022-11-15T08:50:22;98375.00;;;14.50
11321;BMP180;5715;48.234;14.320;2022-11-15T08:53:12;98370.00;;;14.50
11321;BMP180;5715;48.234;14.320;2022-11-15T08:56:00;98363.00;;;14.30
11321;BMP180;5715;48.234;14.320;2022-11-15T08:58:47;98366.00;;;14.30
11321;BMP180;5715;48.234;14.320;2022-11-15T09:01:35;98370.00;;;14.60
11321;BMP180;5715;48.234;14.320;2022-11-15T09:04:22;98374.00;;;14.90
11321;BMP180;5715;48.234;14.320;2022-11-15T09:07:11;98370.00;;;14.90
11321;BMP180;5715;48.234;14.320;2022-11-15T09:09:59;98370.00;;;15.20
11321;BMP180;5715;48.234;14.320;2022-11-15T09:12:47;98366.00;;;15.10
11321;BMP180;5715;48.234;14.320;2022-11-15T09:15:37;98364.00;;;15.20
11321;BMP180;5715;48.234;14.320;2022-11-15T09:18:25;98358.00;;;15.40
11321;BMP180;5715;48.234;14.320;2022-11-15T09:21:13;98364.00;;;15.60
11321;BMP180;5715;48.234;14.320;2022-11-15T09:24:01;98363.00;;;15.40
11321;BMP180;5715;48.234;14.320;2022-11-15T09:26:51;98361.00;;;15.20
11321;BMP180;5715;48.234;14.320;2022-11-15T09:29:38;98362.00;;;15.30
11321;BMP180;5715;48.234;14.320;2022-11-15T09:32:29;98355.00;;;15.40
11321;BMP180;5715;48.234;14.320;2022-11-15T09:35:25;98353.00;;;15.40
11321;BMP180;5715;48.234;14.320;2022-11-15T09:38:12;98358.00;;;15.50
11321;BMP180;5715;48.234;14.320;2022-11-15T09:44:38;98356.00;;;15.70
11321;BMP180;5715;48.234;14.320;2022-11-15T09:50:57;98351.00;;;15.60
11321;BMP180;5715;48.234;14.320;2022-11-15T09:57:13;98351.00;;;15.70
11321;BMP180;5715;48.234;14.320;2022-11-15T10:00:28;98347.00;;;15.60
11321;BMP180;5715;48.234;14.320;2022-11-15T10:03:39;98341.00;;;15.80
11321;BMP180;5715;48.234;14.320;2022-11-15T10:06:32;98340.00;;;16.00
11321;BMP180;5715;48.234;14.320;2022-11-15T10:09:30;98338.00;;;15.80
11321;BMP180;5715;48.234;14.320;2022-11-15T10:12:19;98330.00;;;15.80
11321;BMP180;5715;48.234;14.320;2022-11-15T10:15:15;98322.00;;;15.60
11321;BMP180;5715;48.234;14.320;2022-11-15T10:18:15;98318.00;;;15.60
11321;BMP180;5715;48.234;14.320;2022-11-15T10:21:20;98307.00;;;15.50
11321;BMP180;5715;48.234;14.320;2022-11-15T10:24:12;98308.00;;;15.50
11321;BMP180;5715;48.234;14.320;2022-11-15T10:27:17;98301.00;;;15.60
11321;BMP180;5715;48.234;14.320;2022-11-15T10:30:13;98292.00;;;15.00
11321;BMP180;5715;48.234;14.320;2022-11-15T10:36:23;98274.00;;;15.40
11321;BMP180;5715;48.234;14.320;2022-11-15T10:39:14;98266.00;;;15.40
11321;BMP180;5715;48.234;14.320;2022-11-15T10:42:27;98261.00;;;15.10
11321;BMP180;5715;48.234;14.320;2022-11-15T10:45:28;98256.00;;;15.20
11321;BMP180;5715;48.234;14.320;2022-11-15T10:48:23;98246.00;;;14.70
11321;BMP180;5715;48.234;14.320;2022-11-15T10:51:29;98244.00;;;14.70
11321;BMP180;5715;48.234;14.320;2022-11-15T10:54:42;98241.00;;;14.30
11321;BMP180;5715;48.234;14.320;2022-11-15T10:57:35;98239.00;;;14.60
11321;BMP180;5715;48.234;14.320;2022-11-15T11:00:32;98228.00;;;14.90
11321;BMP180;5715;48.234;14.320;2022-11-15T11:03:36;98225.00;;;15.20
11321;BMP180;5715;48.234;14.320;2022-11-15T11:06:28;98227.00;;;15.20
11321;BMP180;5715;48.234;14.320;2022-11-15T11:09:35;98221.00;;;14.70
11321;BMP180;5715;48.234;14.320;2022-11-15T11:12:32;98216.00;;;14.70
11321;BMP180;5715;48.234;14.320;2022-11-15T11:15:26;98212.00;;;14.70
11321;BMP180;5715;48.234;14.320;2022-11-15T11:24:45;98191.00;;;15.00
11321;BMP180;5715;48.234;14.320;2022-11-15T11:28:04;98190.00;;;15.20
11321;BMP180;5715;48.234;14.320;2022-11-15T11:31:08;98195.00;;;15.20
11321;BMP180;5715;48.234;14.320;2022-11-15T11:34:17;98186.00;;;14.80
11321;BMP180;5715;48.234;14.320;2022-11-15T11:37:27;98181.00;;;15.10
11321;BMP180;5715;48.234;14.320;2022-11-15T11:40:28;98185.00;;;15.20
11321;BMP180;5715;48.234;14.320;2022-11-15T11:47:15;98159.00;;;15.20
11321;BMP180;5715;48.234;14.320;2022-11-15T11:50:19;98172.00;;;14.80
11321;BMP180;5715;48.234;14.320;2022-11-15T11:56:41;98161.00;;;15.30
11321;BMP180;5715;48.234;14.320;2022-11-15T11:59:58;98147.00;;;15.50
11321;BMP180;5715;48.234;14.320;2022-11-15T12:03:14;98148.00;;;15.50
11321;BMP180;5715;48.234;14.320;2022-11-15T12:10:04;98132.00;;;15.90
11321;BMP180;5715;48.234;14.320;2022-11-15T12:13:08;98119.00;;;15.80
11321;BMP180;5715;48.234;14.320;2022-11-15T12:16:16;98109.00;;;15.80
11321;BMP180;5715;48.234;14.320;2022-11-15T12:19:04;98111.00;;;15.80
11321;BMP180;5715;48.234;14.320;2022-11-15T12:22:38;98120.00;;;15.80
11321;BMP180;5715;48.234;14.320;2022-11-15T12:25:44;98124.00;;;15.70
11321;BMP180;5715;48.234;14.320;2022-11-15T12:28:45;98107.00;;;15.90
11321;BMP180;5715;48.234;14.320;2022-11-15T12:31:55;98097.00;;;15.80
11321;BMP180;5715;48.234;14.320;2022-11-15T12:34:49;98099.00;;;15.40
11321;BMP180;5715;48.234;14.320;2022-11-15T12:47:37;98069.00;;;15.30
11321;BMP180;5715;48.234;14.320;2022-11-15T12:50:52;98064.00;;;15.30
11321;BMP180;5715;48.234;14.320;2022-11-15T12:53:43;98069.00;;;15.40
11321;BMP180;5715;48.234;14.320;2022-11-15T12:56:31;98067.00;;;15.60
11321;BMP180;5715;48.234;14.320;2022-11-15T12:59:52;98065.00;;;15.60
11321;BMP180;5715;48.234;14.320;2022-11-15T13:02:43;98059.00;;;15.60
11321;BMP180;5715;48.234;14.320;2022-11-15T13:08:42;98051.00;;;15.40
11321;BMP180;5715;48.234;14.320;2022-11-15T13:11:58;98049.00;;;15.80
11321;BMP180;5715;48.234;14.320;2022-11-15T13:18:28;98031.00;;;15.50
11321;BMP180;5715;48.234;14.320;2022-11-15T13:21:23;98026.00;;;15.60
11321;BMP180;5715;48.234;14.320;2022-11-15T13:24:30;98027.00;;;15.30
11321;BMP180;5715;48.234;14.320;2022-11-15T13:27:19;98026.00;;;15.50
11321;BMP180;5715;48.234;14.320;2022-11-15T13:30:30;98015.00;;;15.50
11321;BMP180;5715;48.234;14.320;2022-11-15T13:33:36;98011.00;;;15.70
11321;BMP180;5715;48.234;14.320;2022-11-15T13:36:32;98013.00;;;15.60
11321;BMP180;5715;48.234;14.320;2022-11-15T13:39:32;98012.00;;;15.60
11321;BMP180;5715;48.234;14.320;2022-11-15T13:42:21;98006.00;;;15.80
11321;BMP180;5715;48.234;14.320;2022-11-15T13:45:16;98006.00;;;15.90
11321;BMP180;5715;48.234;14.320;2022-11-15T13:48:04;98013.00;;;15.80
11321;BMP180;5715;48.234;14.320;2022-11-15T13:50:53;98015.00;;;15.70
11321;BMP180;5715;48.234;14.320;2022-11-15T13:53:46;98008.00;;;15.80
11321;BMP180;5715;48.234;14.320;2022-11-15T13:56:35;98006.00;;;15.90
11321;BMP180;5715;48.234;14.320;2022-11-15T13:59:31;97998.00;;;15.80
11321;BMP180;5715;48.234;14.320;2022-11-15T14:02:35;98008.00;;;15.80
11321;BMP180;5715;48.234;14.320;2022-11-15T14:05:26;97994.00;;;15.70
11321;BMP180;5715;48.234;14.320;2022-11-15T14:11:17;97989.00;;;15.90
11321;BMP180;5715;48.234;14.320;2022-11-15T14:17:00;97989.00;;;15.90
11321;BMP180;5715;48.234;14.320;2022-11-15T14:19:48;97990.00;;;16.00
11321;BMP180;5715;48.234;14.320;2022-11-15T14:22:36;97987.00;;;15.90
11321;BMP180;5715;48.234;14.320;2022-11-15T14:25:35;97993.00;;;15.80
11321;BMP180;5715;48.234;14.320;2022-11-15T14:31:12;97978.00;;;15.20
11321;BMP180;5715;48.234;14.320;2022-11-15T14:34:00;97982.00;;;15.40
11321;BMP180;5715;48.234;14.320;2022-11-15T14:36:48;97987.00;;;15.60
11321;BMP180;5715;48.234;14.320;2022-11-15T14:39:35;97982.00;;;15.80
11321;BMP180;5715;48.234;14.320;2022-11-15T14:42:24;97981.00;;;15.80
11321;BMP180;5715;48.234;14.320;2022-11-15T14:45:21;97971.00;;;15.60
11321;BMP180;5715;48.234;14.320;2022-11-15T14:48:09;97973.00;;;15.60
11321;BMP180;5715;48.234;14.320;2022-11-15T14:50:56;97972.00;;;15.70
11321;BMP180;5715;48.234;14.320;2022-11-15T14:53:45;97964.00;;;15.40
11321;BMP180;5715;48.234;14.320;2022-11-15T14:56:33;97972.00;;;15.50
11321;BMP180;5715;48.234;14.320;2022-11-15T14:59:21;97965.00;;;15.00
11321;BMP180;5715;48.234;14.320;2022-11-15T15:02:29;97960.00;;;14.80
11321;BMP180;5715;48.234;14.320;2022-11-15T15:05:23;97947.00;;;15.30
11321;BMP180;5715;48.234;14.320;2022-11-15T15:08:11;97943.00;;;15.20
11321;BMP180;5715;48.234;14.320;2022-11-15T15:10:59;97945.00;;;15.10
11321;BMP180;5715;48.234;14.320;2022-11-15T15:13:47;97946.00;;;15.20
11321;BMP180;5715;48.234;14.320;2022-11-15T15:16:34;97947.00;;;15.20
11321;BMP180;5715;48.234;14.320;2022-11-15T15:19:22;97946.00;;;15.30
11321;BMP180;5715;48.234;14.320;2022-11-15T15:22:17;97945.00;;;15.30
11321;BMP180;5715;48.234;14.320;2022-11-15T15:25:33;97941.00;;;15.40
11321;BMP180;5715;48.234;14.320;2022-11-15T15:28:22;97949.00;;;15.30
11321;BMP180;5715;48.234;14.320;2022-11-15T15:31:10;97946.00;;;15.30
11321;BMP180;5715;48.234;14.320;2022-11-15T15:33:58;97948.00;;;15.50
11321;BMP180;5715;48.234;14.320;2022-11-15T15:36:45;97951.00;;;15.60
11321;BMP180;5715;48.234;14.320;2022-11-15T15:39:33;97950.00;;;15.20
11321;BMP180;5715;48.234;14.320;2022-11-15T15:42:22;97952.00;;;15.50
11321;BMP180;5715;48.234;14.320;2022-11-15T15:45:10;97947.00;;;15.50
11321;BMP180;5715;48.234;14.320;2022-11-15T15:47:58;97942.00;;;15.30
11321;BMP180;5715;48.234;14.320;2022-11-15T15:50:45;97927.00;;;15.50
11321;BMP180;5715;48.234;14.320;2022-11-15T15:53:34;97943.00;;;15.30
11321;BMP180;5715;48.234;14.320;2022-11-15T15:56:22;97945.00;;;15.30
11321;BMP180;5715;48.234;14.320;2022-11-15T15:59:09;97944.00;;;15.10
11321;BMP180;5715;48.234;14.320;2022-11-15T16:01:57;97954.00;;;15.30
11321;BMP180;5715;48.234;14.320;2022-11-15T16:04:45;97949.00;;;15.40
11321;BMP180;5715;48.234;14.320;2022-11-15T16:07:32;97952.00;;;15.30
11321;BMP180;5715;48.234;14.320;2022-11-15T16:10:28;97958.00;;;15.40
11321;BMP180;5715;48.234;14.320;2022-11-15T16:13:16;97954.00;;;15.40
11321;BMP180;5715;48.234;14.320;2022-11-15T16:16:08;97960.00;;;15.60
11321;BMP180;5715;48.234;14.320;2022-11-15T16:18:59;97944.00;;;15.40
11321;BMP180;5715;48.234;14.320;2022-11-15T16:21:48;97935.00;;;15.40
11321;BMP180;5715;48.234;14.320;2022-11-15T16:24:35;97935.00;;;15.50
11321;BMP180;5715;48.234;14.320;2022-11-15T16:27:24;97937.00;;;14.90
11321;BMP180;5715;48.234;14.320;2022-11-15T16:30:15;97936.00;;;15.20
11321;BMP180;5715;48.234;14.320;2022-11-15T16:33:04;97934.00;;;15.00
11321;BMP180;5715;48.234;14.320;2022-11-15T16:35:51;97933.00;;;15.50
11321;BMP180;5715;48.234;14.320;2022-11-15T16:38:39;97933.00;;;15.20
11321;BMP180;5715;48.234;14.320;2022-11-15T16:41:27;97936.00;;;15.60
11321;BMP180;5715;48.234;14.320;2022-11-15T16:44:14;97927.00;;;15.70
11321;BMP180;5715;48.234;14.320;2022-11-15T16:47:02;97921.00;;;15.40
11321;BMP180;5715;48.234;14.320;2022-11-15T16:49:53;97924.00;;;15.40
11321;BMP180;5715;48.234;14.320;2022-11-15T16:52:40;97925.00;;;15.50
11321;BMP180;5715;48.234;14.320;2022-11-15T16:55:28;97924.00;;;15.70
11321;BMP180;5715;48.234;14.320;2022-11-15T16:58:16;97919.00;;;15.60
11321;BMP180;5715;48.234;14.320;2022-11-15T17:01:04;97932.00;;;15.60
11321;BMP180;5715;48.234;14.320;2022-11-15T17:03:53;97925.00;;;15.60
11321;BMP180;5715;48.234;14.320;2022-11-15T17:06:45;97929.00;;;15.80
11321;BMP180;5715;48.234;14.320;2022-11-15T17:09:33;97927.00;;;15.60
11321;BMP180;5715;48.234;14.320;2022-11-15T17:12:21;97925.00;;;15.60
11321;BMP180;5715;48.234;14.320;2022-11-15T17:15:12;97919.00;;;15.60
11321;BMP180;5715;48.234;14.320;2022-11-15T17:17:59;97919.00;;;15.70
11321;BMP180;5715;48.234;14.320;2022-11-15T17:20:47;97920.00;;;15.50
11321;BMP180;5715;48.234;14.320;2022-11-15T17:23:34;97920.00;;;15.80
11321;BMP180;5715;48.234;14.320;2022-11-15T17:26:22;97921.00;;;15.70
11321;BMP180;5715;48.234;14.320;2022-11-15T17:29:17;97915.00;;;15.30
11321;BMP180;5715;48.234;14.320;2022-11-15T17:32:05;97920.00;;;15.50
11321;BMP180;5715;48.234;14.320;2022-11-15T17:34:52;97911.00;;;15.10
11321;BMP180;5715;48.234;14.320;2022-11-15T17:37:40;97920.00;;;15.30
11321;BMP180;5715;48.234;14.320;2022-11-15T17:40:27;97908.00;;;15.40
11321;BMP180;5715;48.234;14.320;2022-11-15T17:43:14;97904.00;;;15.50
11321;BMP180;5715;48.234;14.320;2022-11-15T17:46:10;97895.00;;;15.60
11321;BMP180;5715;48.234;14.320;2022-11-15T17:48:58;97897.00;;;15.20
11321;BMP180;5715;48.234;14.320;2022-11-15T17:51:46;97898.00;;;15.40